createdAt,value
2019-03-30T00:01:59.747Z,13.30
2019-03-30T00:04:31.929Z,13.03
2019-03-30T00:07:02.922Z,12.53
2019-03-30T00:09:34.029Z,13.30
2019-03-30T00:12:05.032Z,13.07
2019-03-30T00:14:35.972Z,12.77
2019-03-30T00:17:07.218Z,12.43
2019-03-30T00:19:38.135Z,13.10
2019-03-30T00:22:09.432Z,14.07
2019-03-30T00:24:40.432Z,13.67
2019-03-30T00:27:11.347Z,13.30
2019-03-30T00:29:42.254Z,13.00
2019-03-30T00:32:13.327Z,10.37
2019-03-30T00:34:44.169Z,12.50
2019-03-30T00:37:15.100Z,11.27
2019-03-30T00:39:45.983Z,10.83
2019-03-30T00:42:16.941Z,11.77
2019-03-30T00:44:48.026Z,11.13
2019-03-30T00:47:19.082Z,11.77
2019-03-30T00:49:51.920Z,12.03
2019-03-30T00:52:22.860Z,12.20
2019-03-30T00:54:53.895Z,11.53
2019-03-30T00:57:24.828Z,11.17
2019-03-30T00:59:55.688Z,12.27
2019-03-30T01:02:26.642Z,11.90
2019-03-30T01:04:57.510Z,12.70
2019-03-30T01:07:28.497Z,12.63
2019-03-30T01:09:59.392Z,12.77
2019-03-30T01:12:30.272Z,12.53
2019-03-30T01:15:01.200Z,11.43
2019-03-30T01:17:32.166Z,13.63
2019-03-30T01:20:03.853Z,11.97
2019-03-30T01:22:34.916Z,10.67
2019-03-30T01:25:06.654Z,11.20
2019-03-30T01:27:37.568Z,10.53
2019-03-30T01:30:22.205Z,10.90
2019-03-30T01:32:41.752Z,11.03
2019-03-30T01:35:12.634Z,10.50
2019-03-30T01:37:43.525Z,11.30
2019-03-30T01:40:14.409Z,11.17
2019-03-30T01:42:45.381Z,11.23
2019-03-30T01:45:16.287Z,11.37
2019-03-30T01:47:47.265Z,10.90
2019-03-30T01:50:20.827Z,10.37
2019-03-30T01:52:51.765Z,9.80
2019-03-30T01:55:22.633Z,11.83
2019-03-30T01:57:53.505Z,12.20
2019-03-30T02:00:24.437Z,11.43
2019-03-30T02:02:55.349Z,12.60
2019-03-30T02:05:26.287Z,12.67
2019-03-30T02:07:57.319Z,12.73
2019-03-30T02:10:45.067Z,10.80
2019-03-30T02:13:16.107Z,12.93
2019-03-30T02:15:47.039Z,12.37
2019-03-30T02:18:17.945Z,13.93
2019-03-30T02:20:49.609Z,12.30
2019-03-30T02:23:20.569Z,12.43
2019-03-30T02:25:51.419Z,12.60
2019-03-30T02:28:22.317Z,11.87
2019-03-30T02:30:53.322Z,11.87
2019-03-30T02:33:24.271Z,11.90
2019-03-30T02:35:55.135Z,11.93
2019-03-30T02:38:26.365Z,12.80
2019-03-30T02:40:57.416Z,12.47
2019-03-30T02:43:28.414Z,12.60
2019-03-30T02:45:59.300Z,12.07
2019-03-30T02:48:30.177Z,11.53
2019-03-30T02:51:01.090Z,12.07
2019-03-30T02:53:32.060Z,10.90
2019-03-30T02:56:02.971Z,12.13
2019-03-30T02:58:33.809Z,11.50
2019-03-30T03:01:04.783Z,11.30
2019-03-30T03:03:35.769Z,11.73
2019-03-30T03:06:06.727Z,11.60
2019-03-30T03:08:40.012Z,11.10
2019-03-30T03:11:10.928Z,11.20
2019-03-30T03:13:41.827Z,12.10
2019-03-30T03:16:12.761Z,11.13
2019-03-30T03:18:43.680Z,11.03
2019-03-30T03:21:14.602Z,10.60
2019-03-30T03:23:45.503Z,11.77
2019-03-30T03:26:16.441Z,10.93
2019-03-30T03:28:47.348Z,11.13
2019-03-30T03:31:18.269Z,10.10
2019-03-30T03:33:49.219Z,10.60
2019-03-30T03:36:20.120Z,11.40
2019-03-30T03:38:51.013Z,11.17
2019-03-30T03:41:21.917Z,10.93
2019-03-30T03:43:52.823Z,11.80
2019-03-30T03:46:23.720Z,10.97
2019-03-30T03:48:54.665Z,11.30
2019-03-30T03:51:26.798Z,11.17
2019-03-30T03:53:57.902Z,11.57
2019-03-30T03:56:30.981Z,11.90
2019-03-30T03:59:04.726Z,12.03
2019-03-30T04:01:37.148Z,12.07
2019-03-30T04:04:11.052Z,11.87
2019-03-30T04:06:46.696Z,12.30
2019-03-30T04:09:20.050Z,11.47
2019-03-30T04:11:53.454Z,11.93
2019-03-30T04:14:26.400Z,13.10
2019-03-30T04:16:57.379Z,13.33
2019-03-30T04:19:28.450Z,12.97
2019-03-30T04:21:59.307Z,11.80
2019-03-30T04:24:30.189Z,12.93
2019-03-30T04:27:01.056Z,12.27
2019-03-30T04:29:31.968Z,11.63
2019-03-30T04:32:02.933Z,13.13
2019-03-30T04:34:33.738Z,13.60
2019-03-30T04:37:04.613Z,13.10
2019-03-30T04:39:35.468Z,12.97
2019-03-30T04:42:06.883Z,12.30
2019-03-30T04:44:37.683Z,12.13
2019-03-30T04:47:08.539Z,13.53
2019-03-30T04:49:39.356Z,11.70
2019-03-30T04:52:10.870Z,12.40
2019-03-30T04:54:41.792Z,11.43
2019-03-30T04:57:12.704Z,12.50
2019-03-30T04:59:43.644Z,12.60
2019-03-30T05:02:14.748Z,11.80
2019-03-30T05:04:45.770Z,13.27
2019-03-30T05:07:16.975Z,12.53
2019-03-30T05:09:47.975Z,11.20
2019-03-30T05:12:19.142Z,11.47
2019-03-30T05:14:50.290Z,13.60
2019-03-30T05:17:21.692Z,12.60
2019-03-30T05:19:52.908Z,11.57
2019-03-30T05:22:24.677Z,11.97
2019-03-30T05:24:56.103Z,12.73
2019-03-30T05:27:27.289Z,12.17
2019-03-30T05:29:58.435Z,12.93
2019-03-30T05:32:29.724Z,14.03
2019-03-30T05:35:01.021Z,13.10
2019-03-30T05:37:32.321Z,12.43
2019-03-30T05:40:03.701Z,12.93
2019-03-30T05:42:34.775Z,12.83
2019-03-30T05:45:06.329Z,13.10
2019-03-30T05:47:37.828Z,12.30
2019-03-30T05:50:12.177Z,12.03
2019-03-30T05:52:43.478Z,12.03
2019-03-30T05:55:14.762Z,12.33
2019-03-30T05:57:46.125Z,11.90
2019-03-30T06:00:20.582Z,13.00
2019-03-30T06:02:51.994Z,14.20
2019-03-30T06:05:23.090Z,12.27
2019-03-30T06:07:54.473Z,13.33
2019-03-30T06:10:25.534Z,14.80
2019-03-30T06:12:56.849Z,14.17
2019-03-30T06:15:27.923Z,12.93
2019-03-30T06:17:59.176Z,15.57
2019-03-30T06:20:30.313Z,15.43
2019-03-30T06:23:01.449Z,15.47
2019-03-30T06:25:32.746Z,15.57
2019-03-30T06:28:04.118Z,15.90
2019-03-30T06:30:37.847Z,15.37
2019-03-30T06:33:09.038Z,15.47
2019-03-30T06:35:40.307Z,15.60
2019-03-30T06:38:11.693Z,17.13
2019-03-30T06:40:42.892Z,15.77
2019-03-30T06:43:13.945Z,16.13
2019-03-30T06:45:45.196Z,16.20
2019-03-30T06:48:16.531Z,17.00
2019-03-30T06:50:47.595Z,16.87
2019-03-30T06:53:18.916Z,17.40
2019-03-30T06:55:49.952Z,16.20
2019-03-30T06:58:21.089Z,17.30
2019-03-30T07:00:53.287Z,16.57
2019-03-30T07:03:24.931Z,17.80
2019-03-30T07:05:57.055Z,18.00
2019-03-30T07:08:30.448Z,17.10
2019-03-30T07:11:03.812Z,17.40
2019-03-30T07:13:37.839Z,18.37
2019-03-30T07:16:09.190Z,18.53
2019-03-30T07:18:43.328Z,17.93
2019-03-30T07:21:14.579Z,19.57
2019-03-30T07:23:45.752Z,18.17
2019-03-30T07:26:18.808Z,17.73
2019-03-30T07:28:50.307Z,17.97
2019-03-30T07:31:21.538Z,17.73
2019-03-30T07:33:55.904Z,18.83
2019-03-30T07:36:27.339Z,18.43
2019-03-30T07:38:59.596Z,20.23
2019-03-30T07:41:30.569Z,17.93
2019-03-30T07:44:01.700Z,18.93
2019-03-30T07:46:32.965Z,18.97
2019-03-30T07:49:04.067Z,19.13
2019-03-30T07:51:35.419Z,19.67
2019-03-30T07:54:06.512Z,18.57
2019-03-30T07:56:37.809Z,17.57
2019-03-30T07:59:09.629Z,17.33
2019-03-30T08:01:40.994Z,18.87
2019-03-30T08:04:12.202Z,18.07
2019-03-30T08:06:45.897Z,18.07
2019-03-30T08:09:17.787Z,17.20
2019-03-30T08:11:49.017Z,16.73
2019-03-30T08:14:20.369Z,18.00
2019-03-30T08:16:51.525Z,17.17
2019-03-30T08:19:22.835Z,16.77
2019-03-30T08:21:54.249Z,16.93
2019-03-30T08:24:27.508Z,16.07
2019-03-30T08:27:00.780Z,16.60
2019-03-30T08:29:32.204Z,16.47
2019-03-30T08:32:04.563Z,17.67
2019-03-30T08:34:35.936Z,17.93
2019-03-30T08:37:07.260Z,17.40
2019-03-30T08:39:38.543Z,17.67
2019-03-30T08:42:09.753Z,16.00
2019-03-30T08:44:41.336Z,15.70
2019-03-30T08:47:12.782Z,16.80
2019-03-30T08:49:44.309Z,15.90
2019-03-30T08:52:15.572Z,13.90
2019-03-30T08:54:46.895Z,14.77
2019-03-30T08:57:21.131Z,13.57
2019-03-30T09:00:00.366Z,12.63
2019-03-30T09:02:31.508Z,12.60
2019-03-30T09:05:02.829Z,13.43
2019-03-30T09:07:34.051Z,12.47
2019-03-30T09:10:06.895Z,12.40
2019-03-30T09:12:38.279Z,13.30
2019-03-30T09:15:14.520Z,13.70
2019-03-30T09:17:45.673Z,13.73
2019-03-30T09:20:17.345Z,13.43
2019-03-30T09:22:48.451Z,15.07
2019-03-30T09:25:19.733Z,14.23
2019-03-30T09:27:50.831Z,14.63
2019-03-30T09:30:22.060Z,14.17
2019-03-30T09:32:53.103Z,13.10
2019-03-30T09:35:24.101Z,13.37
2019-03-30T09:37:55.389Z,14.13
2019-03-30T09:40:26.687Z,14.07
2019-03-30T09:42:57.927Z,13.30
2019-03-30T09:45:29.256Z,13.53
2019-03-30T09:48:00.520Z,14.10
2019-03-30T09:50:31.746Z,15.20
2019-03-30T09:53:02.943Z,15.03
2019-03-30T09:55:37.057Z,13.90
2019-03-30T09:58:08.384Z,14.93
2019-03-30T10:00:39.622Z,15.70
2019-03-30T10:03:10.761Z,16.10
2019-03-30T10:05:43.422Z,14.77
2019-03-30T10:08:14.678Z,16.03
2019-03-30T10:10:46.038Z,14.40
2019-03-30T10:13:17.260Z,13.53
2019-03-30T10:15:48.513Z,14.40
2019-03-30T10:18:19.788Z,14.97
2019-03-30T10:20:52.215Z,13.53
2019-03-30T10:23:23.796Z,14.43
2019-03-30T10:25:54.886Z,13.43
2019-03-30T10:28:25.919Z,13.90
2019-03-30T10:30:59.846Z,13.13
2019-03-30T10:33:31.030Z,13.73
2019-03-30T10:36:02.804Z,13.27
2019-03-30T10:38:34.173Z,14.07
2019-03-30T10:41:05.475Z,13.87
2019-03-30T10:43:36.525Z,13.70
2019-03-30T10:46:10.107Z,14.00
2019-03-30T10:48:41.225Z,14.23
2019-03-30T10:51:12.303Z,12.57
2019-03-30T10:53:43.606Z,11.37
2019-03-30T10:56:14.917Z,14.70
2019-03-30T10:58:46.219Z,14.53
2019-03-30T11:01:18.978Z,14.07
2019-03-30T11:03:50.163Z,13.17
2019-03-30T11:06:23.301Z,12.40
2019-03-30T11:08:55.241Z,11.83
2019-03-30T11:11:26.565Z,11.83
2019-03-30T11:14:02.009Z,13.53
2019-03-30T11:16:33.226Z,12.37
2019-03-30T11:19:04.466Z,14.13
2019-03-30T11:21:35.621Z,13.37
2019-03-30T11:24:06.980Z,14.77
2019-03-30T11:26:38.676Z,13.40
2019-03-30T11:29:09.839Z,15.13
2019-03-30T11:31:41.424Z,14.33
2019-03-30T11:34:12.952Z,12.00
2019-03-30T11:36:44.156Z,13.33
2019-03-30T11:39:15.396Z,12.23
2019-03-30T11:41:46.597Z,12.93
2019-03-30T11:44:17.935Z,14.13
2019-03-30T11:46:49.123Z,13.73
2019-03-30T11:49:20.398Z,13.40
2019-03-30T11:51:51.681Z,13.93
2019-03-30T11:54:22.700Z,13.97
2019-03-30T11:56:54.028Z,13.37
2019-03-30T11:59:25.362Z,13.57
2019-03-30T12:02:00.053Z,13.47
2019-03-30T12:04:31.653Z,13.93
2019-03-30T12:07:03.164Z,15.07
2019-03-30T12:09:35.760Z,12.60
2019-03-30T12:12:08.187Z,12.57
2019-03-30T12:14:39.582Z,11.90
2019-03-30T12:17:10.684Z,12.73
2019-03-30T12:19:42.074Z,11.90
2019-03-30T12:22:16.025Z,12.27
2019-03-30T12:24:47.915Z,10.30
2019-03-30T12:27:19.762Z,10.43
2019-03-30T12:29:51.138Z,10.23
2019-03-30T12:32:22.849Z,9.17
2019-03-30T12:34:54.542Z,11.27
2019-03-30T12:37:25.789Z,10.83
2019-03-30T12:39:58.433Z,9.73
2019-03-30T12:42:30.053Z,10.10
2019-03-30T12:45:01.677Z,10.53
2019-03-30T12:47:33.160Z,9.77
2019-03-30T12:50:05.087Z,9.07
2019-03-30T12:52:40.336Z,8.80
2019-03-30T12:55:11.829Z,10.10
2019-03-30T12:57:43.165Z,10.93
2019-03-30T13:00:14.990Z,10.00
2019-03-30T13:02:46.518Z,10.17
2019-03-30T13:05:18.227Z,9.73
2019-03-30T13:07:49.585Z,10.67
2019-03-30T13:10:20.807Z,9.80
2019-03-30T13:12:54.784Z,9.97
2019-03-30T13:15:26.205Z,10.23
2019-03-30T13:17:57.959Z,10.00
2019-03-30T13:20:29.525Z,9.23
2019-03-30T13:23:00.675Z,9.90
2019-03-30T13:25:32.016Z,10.27
2019-03-30T13:28:03.316Z,11.03
2019-03-30T13:30:34.495Z,11.17
2019-03-30T13:33:05.636Z,10.50
2019-03-30T13:35:36.979Z,9.87
2019-03-30T13:38:08.396Z,10.80
2019-03-30T13:40:39.590Z,11.00
2019-03-30T13:43:10.764Z,9.27
2019-03-30T13:45:43.237Z,10.27
2019-03-30T13:48:14.676Z,11.03
2019-03-30T13:50:45.920Z,10.60
2019-03-30T13:53:17.297Z,9.80
2019-03-30T13:55:48.382Z,10.20
2019-03-30T13:58:20.354Z,8.80
2019-03-30T14:00:54.611Z,9.33
2019-03-30T14:03:25.947Z,9.70
2019-03-30T14:05:57.550Z,9.23
2019-03-30T14:08:30.887Z,8.87
2019-03-30T14:11:02.066Z,10.80
2019-03-30T14:13:35.633Z,11.47
2019-03-30T14:16:05.951Z,9.90
2019-03-30T14:18:37.280Z,9.53
2019-03-30T14:21:08.421Z,9.20
2019-03-30T14:23:39.662Z,8.93
2019-03-30T14:26:10.854Z,9.57
2019-03-30T14:28:43.909Z,8.90
2019-03-30T14:31:15.089Z,9.30
2019-03-30T14:33:46.324Z,10.17
2019-03-30T14:36:17.613Z,10.90
2019-03-30T14:38:51.387Z,10.73
2019-03-30T14:41:22.219Z,9.47
2019-03-30T14:43:53.390Z,8.40
2019-03-30T14:46:24.622Z,8.50
2019-03-30T14:48:59.109Z,8.47
2019-03-30T14:51:30.546Z,9.80
2019-03-30T14:54:02.100Z,9.43
2019-03-30T14:56:44.805Z,8.70
2019-03-30T14:59:10.488Z,9.20
2019-03-30T15:01:39.682Z,9.53
2019-03-30T15:04:11.110Z,9.30
2019-03-30T15:06:42.490Z,9.30
2019-03-30T15:09:13.722Z,9.03
2019-03-30T15:11:45.826Z,8.27
2019-03-30T15:14:17.556Z,7.90
2019-03-30T15:16:49.797Z,8.13
2019-03-30T15:19:21.550Z,8.03
2019-03-30T15:21:53.108Z,9.10
2019-03-30T15:24:24.168Z,8.27
2019-03-30T15:27:00.164Z,9.37
2019-03-30T15:29:28.355Z,8.63
2019-03-30T15:32:00.287Z,8.10
2019-03-30T15:34:31.628Z,8.50
2019-03-30T15:37:03.120Z,9.97
2019-03-30T15:39:35.534Z,9.53
2019-03-30T15:42:07.033Z,9.07
2019-03-30T15:44:38.440Z,9.73
2019-03-30T15:47:10.141Z,10.43
2019-03-30T15:49:41.526Z,9.33
2019-03-30T15:52:14.365Z,9.83
2019-03-30T15:54:46.018Z,9.97
2019-03-30T15:57:20.187Z,9.23
2019-03-30T15:59:53.145Z,9.97
2019-03-30T16:02:24.843Z,10.13
2019-03-30T16:04:56.137Z,11.07
2019-03-30T16:07:27.287Z,11.37
2019-03-30T16:09:58.506Z,10.57
2019-03-30T16:12:30.500Z,10.70
2019-03-30T16:15:02.316Z,9.27
2019-03-30T16:17:33.374Z,9.70
2019-03-30T16:20:05.004Z,9.03
2019-03-30T16:22:36.375Z,10.17
2019-03-30T16:25:08.509Z,11.20
2019-03-30T16:27:40.451Z,11.53
2019-03-30T16:30:12.760Z,11.53
2019-03-30T16:32:44.405Z,10.80
2019-03-30T16:35:15.837Z,12.40
2019-03-30T16:37:48.079Z,11.93
2019-03-30T16:40:19.947Z,12.03
2019-03-30T16:42:51.881Z,12.13
2019-03-30T16:45:24.808Z,11.53
2019-03-30T16:47:56.769Z,13.07
2019-03-30T16:50:28.300Z,12.07
2019-03-30T16:52:59.641Z,12.57
2019-03-30T16:55:30.863Z,12.53
2019-03-30T16:58:02.241Z,13.50
2019-03-30T17:00:37.349Z,12.77
2019-03-30T17:03:08.707Z,12.90
2019-03-30T17:05:40.140Z,15.53
2019-03-30T17:08:11.393Z,13.37
2019-03-30T17:10:43.117Z,13.03
2019-03-30T17:13:14.515Z,13.13
2019-03-30T17:15:45.902Z,12.60
2019-03-30T17:18:17.409Z,13.10
2019-03-30T17:20:48.769Z,12.27
2019-03-30T17:23:20.101Z,12.67
2019-03-30T17:25:51.666Z,12.60
2019-03-30T17:28:23.167Z,12.40
2019-03-30T17:30:54.666Z,12.20
2019-03-30T17:33:25.876Z,10.97
2019-03-30T17:35:57.630Z,10.60
2019-03-30T17:38:28.930Z,11.80
2019-03-30T17:41:03.513Z,10.43
2019-03-30T17:43:35.016Z,11.50
2019-03-30T17:46:06.252Z,11.00
2019-03-30T17:48:37.486Z,12.20
2019-03-30T17:51:08.807Z,12.97
2019-03-30T17:53:40.118Z,11.70
2019-03-30T17:56:13.161Z,11.00
2019-03-30T17:58:44.065Z,11.37
2019-03-30T18:01:15.894Z,11.73
2019-03-30T18:03:47.472Z,11.70
2019-03-30T18:06:18.703Z,11.43
2019-03-30T18:08:49.550Z,12.07
2019-03-30T18:11:20.515Z,10.93
2019-03-30T18:13:51.275Z,12.20
2019-03-30T18:16:22.578Z,12.73
2019-03-30T18:18:55.345Z,12.60
2019-03-30T18:21:26.534Z,12.37
2019-03-30T18:23:57.793Z,12.50
2019-03-30T18:26:28.694Z,12.83
2019-03-30T18:29:04.133Z,13.63
2019-03-30T18:31:35.326Z,13.63
2019-03-30T18:34:06.315Z,13.63
2019-03-30T18:36:39.791Z,13.90
2019-03-30T18:39:10.672Z,13.20
2019-03-30T18:41:41.667Z,13.30
2019-03-30T18:44:12.699Z,12.87
2019-03-30T18:46:45.794Z,12.90
2019-03-30T18:49:16.934Z,13.33
2019-03-30T18:51:50.450Z,12.87
2019-03-30T18:54:22.269Z,13.07
2019-03-30T18:56:53.218Z,12.93
2019-03-30T18:59:24.338Z,12.77
2019-03-30T19:01:55.262Z,13.30
2019-03-30T19:04:26.310Z,13.83
2019-03-30T19:06:57.369Z,13.57
2019-03-30T19:09:28.499Z,14.87
2019-03-30T19:11:59.535Z,15.17
2019-03-30T19:14:30.518Z,15.63
2019-03-30T19:17:02.114Z,15.57
2019-03-30T19:19:39.139Z,15.53
2019-03-30T19:22:10.389Z,15.13
2019-03-30T19:24:42.727Z,14.83
2019-03-30T19:27:13.940Z,15.37
2019-03-30T19:29:45.036Z,13.17
2019-03-30T19:32:16.163Z,13.47
2019-03-30T19:34:47.261Z,12.63
2019-03-30T19:37:18.187Z,12.73
2019-03-30T19:39:49.248Z,12.53
2019-03-30T19:42:20.319Z,12.60
2019-03-30T19:44:51.435Z,12.80
2019-03-30T19:47:23.938Z,12.33
2019-03-30T19:49:54.987Z,14.30
2019-03-30T19:52:39.204Z,13.87
2019-03-30T19:54:58.980Z,14.03
2019-03-30T19:57:30.130Z,14.67
2019-03-30T20:00:01.195Z,15.30
2019-03-30T20:02:32.212Z,14.83
2019-03-30T20:05:03.265Z,15.87
2019-03-30T20:07:34.235Z,15.77
2019-03-30T20:10:06.163Z,16.70
2019-03-30T20:12:37.208Z,15.40
2019-03-30T20:15:10.264Z,15.37
2019-03-30T20:17:41.355Z,15.60
2019-03-30T20:20:12.474Z,15.17
2019-03-30T20:22:43.418Z,15.60
2019-03-30T20:25:14.763Z,15.63
2019-03-30T20:27:45.782Z,15.23
2019-03-30T20:30:17.196Z,15.50
2019-03-30T20:32:48.170Z,14.73
2019-03-30T20:35:19.315Z,14.10
2019-03-30T20:37:50.330Z,13.10
2019-03-30T20:40:21.431Z,14.77
2019-03-30T20:42:54.467Z,13.13
2019-03-30T20:45:25.463Z,13.53
2019-03-30T20:47:56.520Z,14.93
2019-03-30T20:50:27.554Z,14.40
2019-03-30T20:52:58.643Z,15.03
2019-03-30T20:55:29.613Z,16.60
2019-03-30T20:58:00.812Z,15.20
2019-03-30T21:00:31.798Z,16.50
2019-03-30T21:03:02.964Z,17.60
2019-03-30T21:05:33.975Z,17.80
2019-03-30T21:08:05.058Z,18.67
2019-03-30T21:10:36.157Z,19.57
2019-03-30T21:13:07.181Z,18.83
2019-03-30T21:15:38.178Z,19.93
2019-03-30T21:18:09.227Z,20.83
2019-03-30T21:20:43.421Z,21.20
2019-03-30T21:23:14.492Z,19.57
2019-03-30T21:25:45.364Z,20.00
2019-03-30T21:28:16.443Z,22.30
2019-03-30T21:30:47.529Z,20.67
2019-03-30T21:33:18.539Z,20.97
2019-03-30T21:35:50.730Z,21.57
2019-03-30T21:38:21.722Z,21.23
2019-03-30T21:40:52.818Z,21.40
2019-03-30T21:43:25.022Z,22.17
2019-03-30T21:45:56.134Z,22.03
2019-03-30T21:48:27.210Z,22.60
2019-03-30T21:50:58.457Z,23.10
2019-03-30T21:53:29.984Z,23.20
2019-03-30T21:56:01.097Z,22.87
2019-03-30T21:58:33.773Z,22.03
2019-03-30T22:01:04.734Z,24.77
2019-03-30T22:03:35.743Z,25.73
2019-03-30T22:06:06.646Z,25.77
2019-03-30T22:08:37.870Z,25.80
2019-03-30T22:11:08.875Z,25.67
2019-03-30T22:13:39.764Z,26.43
2019-03-30T22:16:10.765Z,27.70
2019-03-30T22:18:41.719Z,28.07
2019-03-30T22:21:12.787Z,29.30
2019-03-30T22:23:46.117Z,27.93
2019-03-30T22:26:17.015Z,27.97
2019-03-30T22:28:47.885Z,29.03
2019-03-30T22:31:18.895Z,30.83
2019-03-30T22:33:49.823Z,28.87
2019-03-30T22:36:20.699Z,30.40
2019-03-30T22:38:51.695Z,30.20
2019-03-30T22:41:22.670Z,30.63
2019-03-30T22:43:53.654Z,30.27
2019-03-30T22:46:24.669Z,31.53
2019-03-30T22:48:55.610Z,31.57
2019-03-30T22:51:26.510Z,31.33
2019-03-30T22:53:57.600Z,32.00
2019-03-30T22:56:28.651Z,32.13
2019-03-30T22:58:59.838Z,31.47
2019-03-30T23:01:30.914Z,32.00
2019-03-30T23:04:01.853Z,32.63
2019-03-30T23:06:32.886Z,31.87
2019-03-30T23:09:11.131Z,33.33
2019-03-30T23:11:38.575Z,31.53
2019-03-30T23:14:11.584Z,32.10
2019-03-30T23:16:42.612Z,33.57
2019-03-30T23:19:13.557Z,32.13
2019-03-30T23:21:44.579Z,35.33
2019-03-30T23:24:15.717Z,33.27
2019-03-30T23:26:49.873Z,34.17
2019-03-30T23:29:20.813Z,33.03
2019-03-30T23:31:51.710Z,32.10
2019-03-30T23:34:22.832Z,34.47
2019-03-30T23:36:53.757Z,34.83
2019-03-30T23:39:24.797Z,35.03
2019-03-30T23:41:55.899Z,34.10
2019-03-30T23:44:26.927Z,35.43
2019-03-30T23:46:57.885Z,34.20
2019-03-30T23:49:28.899Z,34.30
2019-03-30T23:51:59.878Z,34.03
2019-03-30T23:54:31.479Z,35.37
2019-03-30T23:57:02.537Z,35.00
2019-03-30T23:59:33.531Z,35.17
